Time;durP1;ratioP1;P1;durP2;ratioP2;P2;SDS_P1;SDS_P2;PMS_P1;PMS_P2;Temp;Humidity;BMP_temperature;BMP_pressure;BME280_temperature;BME280_humidity;BME280_pressure;Samples;Min_cycle;Max_cycle;Signal;HPM_P1;HPM_P2
2022/06/19 00:00:21;;;;;;;;;;;;;;;26.79;46.38;99065.59;2083332;28;19908;-52
2022/06/19 00:01:22;;;;;;;;;;;;;;;26.78;45.82;99058.34;2086318;28;19908;-53
2022/06/19 00:02:22;;;;;;;;;;;;;;;26.77;46.01;99063.03;2084252;28;20023;-52
2022/06/19 00:03:33;;;;;;;;;;;;;;;26.77;46.28;99060.28;2085420;28;19948;-50
2022/06/19 00:04:33;;;;;;;;;;;;;;;26.77;46.19;99059.44;2093692;28;19920;-53
2022/06/19 00:05:33;;;;;;;;;;;;;;;26.77;46.31;99057.50;2087211;28;19991;-52
2022/06/19 00:06:36;;;;;;;;;;;;;;;26.75;46.57;99047.75;2084910;28;19927;-52
2022/06/19 00:07:37;;;;;;;;;;;;;;;26.75;46.09;99045.81;2084658;28;19984;-50
2022/06/19 00:08:37;;;;;;;;;;;;;;;26.75;46.63;99047.75;2086254;28;20404;-53
2022/06/19 00:09:38;;;;;;;;;;;;;;;26.75;46.47;99047.75;2094502;28;19919;-53
2022/06/19 00:10:38;;;;;;;;;;;;;;;26.74;46.05;99055.19;2084896;28;20224;-52
2022/06/19 00:11:39;;;;;;;;;;;;;;;26.75;46.12;99048.59;2084577;28;19925;-49
2022/06/19 00:12:40;;;;;;;;;;;;;;;26.75;46.17;99053.28;2085678;28;19916;-52
2022/06/19 00:13:40;;;;;;;;;;;;;;;26.75;46.05;99054.13;2080396;28;19920;-49
2022/06/19 00:14:40;;;;;;;;;;;;;;;26.75;46.19;99048.59;2085759;28;19931;-52
2022/06/19 00:15:41;;;;;;;;;;;;;;;26.76;46.24;99052.22;2085003;28;20003;-51
2022/06/19 00:16:41;;;;;;;;;;;;;;;26.76;46.24;99061.34;2092168;28;20242;-49
2022/06/19 00:17:41;;;;;;;;;;;;;;;26.77;46.23;99057.50;2082896;28;19924;-53
2022/06/19 00:18:42;;;;;;;;;;;;;;;26.76;46.00;99055.81;2077518;28;20230;-52
2022/06/19 00:19:42;;;;;;;;;;;;;;;26.76;46.68;99053.06;2077134;28;19917;-52
2022/06/19 00:20:43;;;;;;;;;;;;;;;26.76;46.33;99050.28;2083866;28;20628;-50
2022/06/19 00:21:44;;;;;;;;;;;;;;;26.77;46.18;99049.22;2077455;28;19917;-52
2022/06/19 00:22:44;;;;;;;;;;;;;;;26.75;46.46;99048.59;2074120;28;20307;-52
2022/06/19 00:23:45;;;;;;;;;;;;;;;26.77;46.31;99045.59;2082369;28;19913;-51
2022/06/19 00:24:46;;;;;;;;;;;;;;;26.77;46.38;99051.13;2080013;28;19919;-53
2022/06/19 00:25:46;;;;;;;;;;;;;;;26.76;46.68;99055.81;2084579;28;20250;-52
2022/06/19 00:26:47;;;;;;;;;;;;;;;26.76;46.48;99047.53;2084360;28;20780;-52
2022/06/19 00:27:47;;;;;;;;;;;;;;;26.77;46.11;99046.44;2085766;28;19916;-53
2022/06/19 00:28:47;;;;;;;;;;;;;;;26.75;46.41;99045.81;2084988;28;19978;-52
2022/06/19 00:29:47;;;;;;;;;;;;;;;26.75;46.40;99045.81;2080229;28;19920;-51
2022/06/19 00:30:48;;;;;;;;;;;;;;;26.75;46.33;99048.59;2080938;28;19924;-51
2022/06/19 00:31:48;;;;;;;;;;;;;;;26.75;46.33;99042.22;2078559;28;19932;-53
2022/06/19 00:32:48;;;;;;;;;;;;;;;26.76;46.25;99050.28;2084910;28;20007;-53
2022/06/19 00:33:49;;;;;;;;;;;;;;;26.75;46.68;99040.28;2083295;28;20630;-52
2022/06/19 00:34:50;;;;;;;;;;;;;;;26.74;46.76;99046.91;2085166;28;19927;-52
2022/06/19 00:35:50;;;;;;;;;;;;;;;26.75;46.37;99043.06;2078671;28;19918;-52
2022/06/19 00:36:51;;;;;;;;;;;;;;;26.75;46.16;99042.22;2084722;28;20402;-53
2022/06/19 00:37:52;;;;;;;;;;;;;;;26.73;45.91;99045.22;2079174;28;19940;-51
2022/06/19 00:38:52;;;;;;;;;;;;;;;26.74;46.32;99044.13;2077188;28;20385;-51
2022/06/19 00:39:53;;;;;;;;;;;;;;;26.73;46.27;99039.69;2077184;28;19917;-52
2022/06/19 00:40:57;;;;;;;;;;;;;;;26.72;45.83;99044.34;2079421;28;20739;-52
2022/06/19 00:41:58;;;;;;;;;;;;;;;26.72;46.12;99038.00;2079528;28;19916;-52
2022/06/19 00:42:58;;;;;;;;;;;;;;;26.72;46.19;99035.22;2077587;28;19916;-53
2022/06/19 00:44:06;;;;;;;;;;;;;;;26.72;45.79;99038.00;2081482;28;19932;-52
2022/06/19 00:45:06;;;;;;;;;;;;;;;26.71;45.98;99030.78;2083819;28;19912;-51
2022/06/19 00:46:25;;;;;;;;;;;;;;;26.72;45.82;99032.47;2085401;28;20689;-52
2022/06/19 00:47:27;;;;;;;;;;;;;;;26.71;45.84;99031.63;2081321;28;19927;-53
2022/06/19 00:48:37;;;;;;;;;;;;;;;26.72;46.04;99026.94;2083735;28;19924;-52
2022/06/19 00:49:40;;;;;;;;;;;;;;;26.72;45.89;99026.94;2075844;28;19925;-50
2022/06/19 00:50:41;;;;;;;;;;;;;;;26.72;46.22;99032.47;2073637;28;19977;-51
2022/06/19 00:51:43;;;;;;;;;;;;;;;26.72;46.42;99024.16;2079898;28;20293;-50
2022/06/19 00:52:43;;;;;;;;;;;;;;;26.71;46.20;99028.00;2076513;28;19921;-50
2022/06/19 00:53:46;;;;;;;;;;;;;;;26.71;46.17;99019.72;2075928;28;19947;-51
2022/06/19 00:54:49;;;;;;;;;;;;;;;26.72;46.33;99024.16;2084605;28;19998;-50
2022/06/19 00:55:50;;;;;;;;;;;;;;;26.71;46.33;99023.31;2080599;28;19963;-48
2022/06/19 00:56:51;;;;;;;;;;;;;;;26.73;46.24;99017.59;2077478;28;19927;-50
2022/06/19 00:57:57;;;;;;;;;;;;;;;26.72;46.28;99015.88;2068591;28;20178;-49
2022/06/19 00:58:57;;;;;;;;;;;;;;;26.72;46.58;99011.19;2072473;28;19947;-51
2022/06/19 01:00:33;;;;;;;;;;;;;;;26.72;46.50;99005.66;2069483;28;19917;-50
2022/06/19 01:01:34;;;;;;;;;;;;;;;26.72;46.50;99008.41;2059223;28;20300;-51
2022/06/19 01:02:36;;;;;;;;;;;;;;;26.72;46.33;99007.56;2052671;28;19928;-50
2022/06/19 01:03:39;;;;;;;;;;;;;;;26.72;46.49;99018.63;2054175;28;20279;-51
2022/06/19 01:04:50;;;;;;;;;;;;;;;26.72;46.47;99016.72;2072388;28;19966;-53
2022/06/19 01:05:52;;;;;;;;;;;;;;;26.73;46.65;99012.06;2070072;28;20323;-53
2022/06/19 01:06:53;;;;;;;;;;;;;;;26.72;46.70;99013.09;2076725;28;19962;-51
2022/06/19 01:07:55;;;;;;;;;;;;;;;26.71;46.33;99012.28;2077166;28;19916;-50
2022/06/19 01:08:56;;;;;;;;;;;;;;;26.72;46.56;99015.88;2072888;28;20410;-50
2022/06/19 01:09:57;;;;;;;;;;;;;;;26.71;46.78;99015.03;2075151;28;19913;-51
2022/06/19 01:10:57;;;;;;;;;;;;;;;26.72;46.54;99024.16;2067877;28;19931;-50
2022/06/19 01:11:59;;;;;;;;;;;;;;;26.73;46.90;99023.09;2069206;28;19928;-51
2022/06/19 01:13:00;;;;;;;;;;;;;;;26.72;47.02;99026.94;2070252;28;19932;-51
2022/06/19 01:14:01;;;;;;;;;;;;;;;26.72;46.93;99026.94;2075758;28;19921;-50
2022/06/19 01:15:03;;;;;;;;;;;;;;;26.70;46.94;99023.53;2076232;28;19938;-50
2022/06/19 01:16:05;;;;;;;;;;;;;;;26.71;47.22;99015.03;2077005;28;19932;-51
2022/06/19 01:17:06;;;;;;;;;;;;;;;26.70;47.04;99018.88;2069040;28;20010;-50
2022/06/19 01:18:08;;;;;;;;;;;;;;;26.70;47.18;99023.53;2069539;28;19917;-51
2022/06/19 01:19:09;;;;;;;;;;;;;;;26.69;46.94;99027.38;2068721;28;19917;-51
2022/06/19 01:20:11;;;;;;;;;;;;;;;26.69;47.06;99019.09;2072193;28;19940;-50
2022/06/19 01:21:14;;;;;;;;;;;;;;;26.68;46.70;99015.50;2072634;28;20104;-51
2022/06/19 01:22:20;;;;;;;;;;;;;;;26.69;46.44;99016.34;2077303;28;19917;-51
2022/06/19 01:23:24;;;;;;;;;;;;;;;26.69;46.41;99010.81;2074841;28;19916;-51
2022/06/19 01:24:34;;;;;;;;;;;;;;;26.68;46.52;99017.41;2075367;28;20663;-50
2022/06/19 01:25:36;;;;;;;;;;;;;;;26.68;46.22;99020.19;2069935;28;19924;-51
2022/06/19 01:26:40;;;;;;;;;;;;;;;26.68;46.18;99018.25;2075590;28;20054;-51
2022/06/19 01:29:02;;;;;;;;;;;;;;;26.67;46.21;99013.78;2069230;28;20390;-48
2022/06/19 01:30:04;;;;;;;;;;;;;;;26.68;46.23;99014.66;2072709;28;19916;-49
2022/06/19 01:31:05;;;;;;;;;;;;;;;26.67;46.35;99008.25;2073380;28;19916;-51
2022/06/19 01:32:07;;;;;;;;;;;;;;;26.68;46.54;99011.88;2068736;28;20542;-51
2022/06/19 01:33:10;;;;;;;;;;;;;;;26.67;46.50;99012.94;2069657;28;20709;-50
2022/06/19 01:34:32;;;;;;;;;;;;;;;26.67;46.53;99008.25;2065526;28;20024;-50
2022/06/19 01:35:34;;;;;;;;;;;;;;;26.67;46.61;99004.66;2064922;28;19909;-50
2022/06/19 01:36:35;;;;;;;;;;;;;;;26.68;46.57;99014.66;2074064;28;19916;-50
2022/06/19 01:37:36;;;;;;;;;;;;;;;26.67;46.61;99004.66;2069894;28;19996;-51
2022/06/19 01:38:37;;;;;;;;;;;;;;;26.67;46.96;99008.25;2073717;28;19916;-50
2022/06/19 01:39:39;;;;;;;;;;;;;;;26.67;47.00;99010.19;2076127;28;20263;-51
2022/06/19 01:40:41;;;;;;;;;;;;;;;26.67;47.09;99008.25;2080401;28;19944;-50
2022/06/19 01:41:42;;;;;;;;;;;;;;;26.69;47.04;99010.81;2076607;28;19923;-51
2022/06/19 01:42:42;;;;;;;;;;;;;;;26.68;46.78;99009.13;2079054;28;19923;-50
2022/06/19 01:43:42;;;;;;;;;;;;;;;26.68;47.18;99015.50;2076555;28;20349;-51
2022/06/19 01:44:44;;;;;;;;;;;;;;;26.68;46.95;99011.88;2072814;28;20483;-51
2022/06/19 01:45:48;;;;;;;;;;;;;;;26.68;47.24;99000.84;2075892;28;19964;-50
2022/06/19 01:46:49;;;;;;;;;;;;;;;26.67;46.95;98999.97;2076736;28;19987;-51
2022/06/19 01:47:50;;;;;;;;;;;;;;;26.68;47.27;99003.59;2076216;28;19920;-50
2022/06/19 01:48:50;;;;;;;;;;;;;;;26.67;47.00;98999.13;2079408;28;20319;-51
2022/06/19 01:49:53;;;;;;;;;;;;;;;26.67;47.17;98996.34;2084752;28;19921;-51
2022/06/19 01:50:54;;;;;;;;;;;;;;;26.68;47.29;99003.59;2086221;28;19915;-51
2022/06/19 01:51:54;;;;;;;;;;;;;;;26.67;47.15;98990.81;2082230;28;19927;-51
2022/06/19 01:53:04;;;;;;;;;;;;;;;26.68;47.26;98998.06;2072219;28;19943;-51
2022/06/19 01:54:07;;;;;;;;;;;;;;;26.68;47.19;98987.84;2077472;28;19924;-51
2022/06/19 01:55:08;;;;;;;;;;;;;;;26.67;47.38;98999.13;2082670;28;19920;-50
2022/06/19 01:56:09;;;;;;;;;;;;;;;26.68;47.58;98992.53;2083529;28;20224;-50
2022/06/19 01:57:10;;;;;;;;;;;;;;;26.68;47.16;98998.06;2083361;28;19928;-48
2022/06/19 01:58:11;;;;;;;;;;;;;;;26.66;47.45;98987.22;2086246;28;20007;-49
2022/06/19 01:59:12;;;;;;;;;;;;;;;26.67;47.20;98991.66;2082733;28;19917;-51
2022/06/19 02:00:15;;;;;;;;;;;;;;;26.66;47.40;98987.22;2083386;28;19948;-50
2022/06/19 02:01:15;;;;;;;;;;;;;;;26.66;47.17;98992.75;2084268;28;20394;-51
2022/06/19 02:02:16;;;;;;;;;;;;;;;26.65;47.39;98977.22;2082551;28;19928;-51
2022/06/19 02:03:23;;;;;;;;;;;;;;;26.66;47.31;98989.16;2084988;28;19924;-50
2022/06/19 02:04:23;;;;;;;;;;;;;;;26.65;47.36;98976.38;2084088;28;20259;-49
2022/06/19 02:05:23;;;;;;;;;;;;;;;26.65;47.13;98981.91;2084315;28;19944;-51
2022/06/19 02:06:27;;;;;;;;;;;;;;;26.65;47.43;98976.38;2084664;28;20587;-51
2022/06/19 02:07:28;;;;;;;;;;;;;;;26.64;47.33;98981.06;2083446;28;20265;-50
2022/06/19 02:08:29;;;;;;;;;;;;;;;26.64;47.18;98980.22;2083891;28;19990;-51
2022/06/19 02:09:30;;;;;;;;;;;;;;;26.64;47.43;98974.72;2084344;28;19951;-51
2022/06/19 02:10:31;;;;;;;;;;;;;;;26.64;47.43;98969.19;2084804;28;19912;-50
2022/06/19 02:11:33;;;;;;;;;;;;;;;26.64;47.28;98972.78;2084279;28;20360;-50
2022/06/19 02:12:33;;;;;;;;;;;;;;;26.64;47.32;98974.72;2085518;28;19970;-50
2022/06/19 02:13:35;;;;;;;;;;;;;;;26.64;47.37;98974.72;2084383;28;20281;-49
2022/06/19 02:14:35;;;;;;;;;;;;;;;26.65;47.49;98965.31;2085201;28;19982;-51
2022/06/19 02:15:36;;;;;;;;;;;;;;;26.64;47.57;98963.66;2083714;28;20376;-50
2022/06/19 02:16:40;;;;;;;;;;;;;;;26.64;47.37;98971.94;2083555;28;19969;-51
2022/06/19 02:17:42;;;;;;;;;;;;;;;26.64;47.55;98966.41;2084718;28;20357;-51
2022/06/19 02:18:44;;;;;;;;;;;;;;;26.64;47.62;98958.97;2084083;28;19922;-51
2022/06/19 02:19:45;;;;;;;;;;;;;;;26.64;47.73;98956.19;2083026;28;19924;-51
2022/06/19 02:20:45;;;;;;;;;;;;;;;26.63;47.63;98960.03;2086227;28;19912;-52
2022/06/19 02:21:48;;;;;;;;;;;;;;;26.64;47.55;98958.13;2084421;28;19920;-50
2022/06/19 02:22:48;;;;;;;;;;;;;;;26.64;47.93;98955.34;2084768;28;19916;-51
2022/06/19 02:23:49;;;;;;;;;;;;;;;26.64;47.92;98956.19;2077858;28;19924;-51
2022/06/19 02:24:49;;;;;;;;;;;;;;;26.64;47.84;98952.59;2080734;28;20189;-50
2022/06/19 02:25:50;;;;;;;;;;;;;;;26.64;47.69;98952.59;2085033;28;20442;-51
2022/06/19 02:26:51;;;;;;;;;;;;;;;26.65;47.99;98959.81;2083339;28;19999;-50
2022/06/19 02:27:52;;;;;;;;;;;;;;;26.65;47.71;98954.28;2083834;28;19955;-51
2022/06/19 02:28:52;;;;;;;;;;;;;;;26.64;47.71;98953.44;2084438;28;20657;-50
2022/06/19 02:29:53;;;;;;;;;;;;;;;26.64;48.00;98950.66;2082908;28;19928;-51
2022/06/19 02:30:54;;;;;;;;;;;;;;;26.64;48.01;98949.84;2084003;28;20368;-51
2022/06/19 02:31:55;;;;;;;;;;;;;;;26.64;48.07;98952.59;2082945;28;19913;-49
2022/06/19 02:32:55;;;;;;;;;;;;;;;26.63;47.88;98951.75;2084971;28;19982;-51
2022/06/19 02:33:59;;;;;;;;;;;;;;;26.63;47.77;98950.88;2083141;28;19916;-51
2022/06/19 02:34:59;;;;;;;;;;;;;;;26.64;47.90;98947.91;2080454;28;19924;-53
2022/06/19 02:36:00;;;;;;;;;;;;;;;26.64;48.05;98947.06;2083281;28;19966;-51
2022/06/19 02:37:01;;;;;;;;;;;;;;;26.64;48.07;98947.06;2081486;28;20300;-49
2022/06/19 02:38:05;;;;;;;;;;;;;;;26.63;48.04;98949.00;2083305;28;20370;-50
2022/06/19 02:39:17;;;;;;;;;;;;;;;26.62;47.69;98947.28;2080669;28;19919;-51
2022/06/19 02:40:23;;;;;;;;;;;;;;;26.62;47.89;98949.22;2084642;28;20050;-51
2022/06/19 02:41:28;;;;;;;;;;;;;;;26.61;47.65;98942.84;2082863;28;19916;-51
2022/06/19 02:42:32;;;;;;;;;;;;;;;26.61;47.37;98947.53;2080022;28;20063;-51
2022/06/19 02:43:33;;;;;;;;;;;;;;;26.60;47.56;98941.13;2085055;28;20228;-50
2022/06/19 02:44:35;;;;;;;;;;;;;;;26.61;47.37;98936.47;2085027;28;19926;-50
2022/06/19 02:45:39;;;;;;;;;;;;;;;26.60;47.56;98934.75;2085056;28;20382;-51
2022/06/19 02:46:40;;;;;;;;;;;;;;;26.60;47.54;98937.53;2084191;28;19917;-48
2022/06/19 02:47:40;;;;;;;;;;;;;;;26.59;47.54;98933.09;2084715;28;19913;-51
2022/06/19 02:48:41;;;;;;;;;;;;;;;26.59;47.30;98933.09;2084130;28;20492;-51
2022/06/19 02:49:41;;;;;;;;;;;;;;;26.59;47.25;98931.16;2084175;28;19921;-51
2022/06/19 02:50:42;;;;;;;;;;;;;;;26.58;47.30;98937.78;2083860;28;19927;-49
2022/06/19 02:51:42;;;;;;;;;;;;;;;26.59;47.30;98933.09;2084332;28;20579;-50
2022/06/19 02:52:43;;;;;;;;;;;;;;;26.59;47.39;98933.94;2072930;28;20683;-51
2022/06/19 02:53:43;;;;;;;;;;;;;;;26.59;47.21;98922.88;2070271;28;19952;-51
2022/06/19 02:54:43;;;;;;;;;;;;;;;26.61;47.39;98930.94;2085251;28;20681;-50
2022/06/19 02:55:44;;;;;;;;;;;;;;;26.59;47.48;98927.56;2082873;28;19920;-49
2022/06/19 02:56:44;;;;;;;;;;;;;;;26.59;47.68;98925.63;2082265;28;19916;-50
2022/06/19 02:57:45;;;;;;;;;;;;;;;26.60;47.42;98926.47;2085473;28;19959;-50
2022/06/19 02:58:46;;;;;;;;;;;;;;;26.61;47.46;98925.41;2088119;28;20348;-51
2022/06/19 02:59:46;;;;;;;;;;;;;;;26.59;47.50;98914.56;2080458;28;19916;-50
2022/06/19 03:00:47;;;;;;;;;;;;;;;26.59;47.40;98920.09;2084419;28;20134;-49
2022/06/19 03:01:48;;;;;;;;;;;;;;;26.60;47.44;98918.19;2086608;28;20712;-51
2022/06/19 03:02:50;;;;;;;;;;;;;;;26.60;47.52;98923.72;2084469;28;19912;-50
2022/06/19 03:03:50;;;;;;;;;;;;;;;26.59;47.50;98917.34;2084774;28;19909;-50
2022/06/19 03:04:54;;;;;;;;;;;;;;;26.60;47.39;98918.19;2083266;28;19923;-51
2022/06/19 03:05:54;;;;;;;;;;;;;;;26.60;47.71;98913.50;2081624;28;19904;-51
2022/06/19 03:06:54;;;;;;;;;;;;;;;26.60;47.71;98912.66;2085417;28;19924;-53
2022/06/19 03:07:55;;;;;;;;;;;;;;;26.60;47.67;98913.50;2083513;28;19924;-51
2022/06/19 03:08:55;;;;;;;;;;;;;;;26.61;47.72;98914.38;2084075;28;20532;-51
2022/06/19 03:09:56;;;;;;;;;;;;;;;26.61;47.54;98908.84;2085521;28;20031;-51
2022/06/19 03:10:56;;;;;;;;;;;;;;;26.61;47.43;98906.06;2084363;28;19963;-52
2022/06/19 03:11:56;;;;;;;;;;;;;;;26.60;47.61;98907.13;2085379;28;19916;-50
2022/06/19 03:12:58;;;;;;;;;;;;;;;26.60;47.61;98902.44;2086150;28;20237;-49
2022/06/19 03:13:59;;;;;;;;;;;;;;;26.60;47.67;98902.44;2087425;28;19956;-50
2022/06/19 03:14:59;;;;;;;;;;;;;;;26.59;47.60;98898.00;2082424;28;20254;-49
2022/06/19 03:16:02;;;;;;;;;;;;;;;26.59;47.63;98891.63;2084945;28;19913;-50
2022/06/19 03:17:03;;;;;;;;;;;;;;;26.59;47.58;98888.88;2078866;28;20016;-50
2022/06/19 03:18:03;;;;;;;;;;;;;;;26.58;47.48;98885.25;2084935;28;20286;-48
2022/06/19 03:19:04;;;;;;;;;;;;;;;26.58;47.51;98884.41;2085753;28;19913;-52
2022/06/19 03:20:04;;;;;;;;;;;;;;;26.57;47.70;98886.31;2085048;28;19927;-52
2022/06/19 03:21:05;;;;;;;;;;;;;;;26.57;47.63;98885.47;2085031;28;19917;-50
2022/06/19 03:22:05;;;;;;;;;;;;;;;26.57;47.53;98878.03;2084838;28;20011;-50
2022/06/19 03:23:06;;;;;;;;;;;;;;;26.57;47.45;98877.19;2081414;28;20289;-48
2022/06/19 03:24:06;;;;;;;;;;;;;;;26.56;47.48;98870.00;2083008;28;19923;-50
2022/06/19 03:25:06;;;;;;;;;;;;;;;26.56;47.38;98867.22;2085909;28;19913;-49
2022/06/19 03:26:07;;;;;;;;;;;;;;;26.56;47.39;98872.75;2085023;28;19917;-49
2022/06/19 03:27:09;;;;;;;;;;;;;;;26.55;47.44;98869.13;2085839;28;20030;-48
2022/06/19 03:28:10;;;;;;;;;;;;;;;26.55;47.25;98871.03;2084317;28;20505;-51
2022/06/19 03:29:10;;;;;;;;;;;;;;;26.54;47.46;98861.06;2085896;28;19960;-53
2022/06/19 03:30:11;;;;;;;;;;;;;;;26.54;47.49;98863.84;2085774;28;19916;-51
2022/06/19 03:31:21;;;;;;;;;;;;;;;26.54;47.26;98863.84;2085512;28;19916;-52
2022/06/19 03:32:21;;;;;;;;;;;;;;;26.54;47.49;98858.31;2088846;28;19969;-50
2022/06/19 03:33:22;;;;;;;;;;;;;;;26.54;47.51;98858.31;2085090;28;19970;-50
2022/06/19 03:34:23;;;;;;;;;;;;;;;26.54;47.56;98864.69;2086404;28;20515;-52
2022/06/19 03:35:23;;;;;;;;;;;;;;;26.56;47.46;98861.69;2085473;28;20115;-50
2022/06/19 03:36:24;;;;;;;;;;;;;;;26.55;47.33;98860.84;2086545;28;20274;-51
2022/06/19 03:37:24;;;;;;;;;;;;;;;26.56;47.37;98861.69;2085861;28;19908;-49
2022/06/19 03:38:24;;;;;;;;;;;;;;;26.56;47.45;98856.19;2084705;28;20250;-52
2022/06/19 03:39:25;;;;;;;;;;;;;;;26.56;47.41;98858.94;2085007;28;19924;-49
2022/06/19 03:40:25;;;;;;;;;;;;;;;26.56;47.45;98853.41;2086378;28;19916;-51
2022/06/19 03:41:26;;;;;;;;;;;;;;;26.56;47.50;98858.94;2085073;28;19917;-51
2022/06/19 03:42:26;;;;;;;;;;;;;;;26.56;47.28;98856.19;2086763;28;19909;-52
2022/06/19 03:43:26;;;;;;;;;;;;;;;26.57;47.35;98857.84;2084463;28;19916;-53
2022/06/19 03:44:27;;;;;;;;;;;;;;;26.57;47.22;98863.38;2082717;28;20069;-52
2022/06/19 03:45:27;;;;;;;;;;;;;;;26.57;47.38;98858.69;2084761;28;20295;-52
2022/06/19 03:46:27;;;;;;;;;;;;;;;26.57;47.32;98863.38;2082366;28;20021;-52
2022/06/19 03:47:28;;;;;;;;;;;;;;;26.57;47.67;98863.38;2083158;28;19909;-52
2022/06/19 03:48:28;;;;;;;;;;;;;;;26.57;47.44;98866.13;2084845;28;20278;-51
2022/06/19 03:49:28;;;;;;;;;;;;;;;26.56;47.61;98867.22;2083470;28;19924;-52
2022/06/19 03:50:28;;;;;;;;;;;;;;;26.57;47.59;98871.66;2082778;28;20353;-51
2022/06/19 03:51:29;;;;;;;;;;;;;;;26.57;47.58;98868.91;2085553;28;19916;-52
2022/06/19 03:52:29;;;;;;;;;;;;;;;26.56;47.35;98868.06;2083369;28;20293;-52
2022/06/19 03:53:29;;;;;;;;;;;;;;;26.58;47.44;98865.06;2084833;28;20336;-53
2022/06/19 03:54:30;;;;;;;;;;;;;;;26.57;47.32;98871.66;2083348;28;19908;-52
2022/06/19 03:55:30;;;;;;;;;;;;;;;26.56;47.56;98872.75;2083652;28;20660;-52
2022/06/19 03:56:31;;;;;;;;;;;;;;;26.56;47.49;98861.69;2085060;28;19924;-52
2022/06/19 03:57:31;;;;;;;;;;;;;;;26.56;47.53;98867.22;2083890;28;19916;-52
2022/06/19 03:58:47;;;;;;;;;;;;;;;26.55;47.58;98862.75;2083359;28;20796;-52
2022/06/19 03:59:48;;;;;;;;;;;;;;;26.55;47.52;98862.75;2078514;28;19944;-52
2022/06/19 04:00:48;;;;;;;;;;;;;;;26.54;47.17;98861.91;2084474;28;19916;-49
2022/06/19 04:01:48;;;;;;;;;;;;;;;26.55;47.23;98860.00;2085448;28;19920;-52
2022/06/19 04:02:49;;;;;;;;;;;;;;;26.54;47.39;98852.78;2084923;28;19909;-52
2022/06/19 04:03:50;;;;;;;;;;;;;;;26.54;47.34;98844.50;2083675;28;19920;-52
2022/06/19 04:04:50;;;;;;;;;;;;;;;26.54;46.99;98847.25;2083199;28;19952;-51
2022/06/19 04:05:51;;;;;;;;;;;;;;;26.52;47.00;98851.03;2076196;28;20355;-53
2022/06/19 04:06:51;;;;;;;;;;;;;;;26.52;47.44;98848.28;2073973;28;19912;-52
2022/06/19 04:07:51;;;;;;;;;;;;;;;26.52;47.28;98845.53;2086011;28;19908;-52
2022/06/19 04:08:52;;;;;;;;;;;;;;;26.51;47.42;98838.31;2081793;28;19909;-52
2022/06/19 04:09:58;;;;;;;;;;;;;;;26.53;47.22;98840.88;2081632;28;19928;-50
2022/06/19 04:10:58;;;;;;;;;;;;;;;26.53;47.03;98851.91;2085716;28;19916;-52
2022/06/19 04:11:58;;;;;;;;;;;;;;;26.52;47.10;98845.53;2076372;28;20099;-52
2022/06/19 04:12:58;;;;;;;;;;;;;;;26.53;47.27;98846.38;2073323;28;19917;-50
2022/06/19 04:13:59;;;;;;;;;;;;;;;26.52;47.14;98844.69;2085083;28;19915;-52
2022/06/19 04:14:59;;;;;;;;;;;;;;;26.51;47.21;98838.31;2083312;28;20097;-52
2022/06/19 04:15:59;;;;;;;;;;;;;;;26.52;47.55;98851.03;2085092;28;20232;-52
2022/06/19 04:17:00;;;;;;;;;;;;;;;26.52;47.25;98851.03;2085927;28;20302;-51
2022/06/19 04:18:00;;;;;;;;;;;;;;;26.52;47.26;98841.91;2081054;28;19940;-50
2022/06/19 04:19:04;;;;;;;;;;;;;;;26.53;47.35;98851.91;2084967;28;20231;-52
2022/06/19 04:20:07;;;;;;;;;;;;;;;26.53;47.44;98846.38;2082681;28;19909;-52
2022/06/19 04:21:11;;;;;;;;;;;;;;;26.53;47.59;98851.91;2082719;28;19921;-52
2022/06/19 04:22:11;;;;;;;;;;;;;;;26.52;47.54;98842.75;2084289;28;19987;-53
2022/06/19 04:23:12;;;;;;;;;;;;;;;26.54;47.60;98852.78;2083620;28;19921;-51
2022/06/19 04:24:14;;;;;;;;;;;;;;;26.54;47.84;98847.25;2080519;28;19986;-51
2022/06/19 04:25:14;;;;;;;;;;;;;;;26.54;47.86;98847.25;2083894;28;20367;-52
2022/06/19 04:26:15;;;;;;;;;;;;;;;26.53;47.71;98840.88;2079020;28;19924;-51
2022/06/19 04:27:15;;;;;;;;;;;;;;;26.52;47.62;98834.47;2085617;28;19916;-48
2022/06/19 04:28:17;;;;;;;;;;;;;;;26.54;47.84;98836.22;2084036;28;19921;-51
2022/06/19 04:29:17;;;;;;;;;;;;;;;26.54;47.68;98841.72;2086741;28;19940;-52
2022/06/19 04:30:17;;;;;;;;;;;;;;;26.53;47.62;98838.09;2084715;28;19921;-52
2022/06/19 04:31:18;;;;;;;;;;;;;;;26.54;47.58;98837.03;2084368;28;19976;-51
2022/06/19 04:32:18;;;;;;;;;;;;;;;26.53;47.81;98840.88;2086302;28;19975;-52
2022/06/19 04:33:20;;;;;;;;;;;;;;;26.54;47.54;98852.78;2080568;28;19974;-53
2022/06/19 04:34:20;;;;;;;;;;;;;;;26.53;47.55;98849.16;2083961;28;19917;-52
2022/06/19 04:35:20;;;;;;;;;;;;;;;26.53;47.94;98857.44;2085853;28;19991;-51
2022/06/19 04:36:22;;;;;;;;;;;;;;;26.54;47.68;98863.84;2084927;28;20229;-52
2022/06/19 04:37:22;;;;;;;;;;;;;;;26.52;47.63;98864.88;2087526;28;19916;-50
2022/06/19 04:38:22;;;;;;;;;;;;;;;26.52;47.80;98867.63;2084673;28;20339;-51
2022/06/19 04:39:23;;;;;;;;;;;;;;;26.52;47.43;98867.63;2083256;28;19986;-51
2022/06/19 04:40:24;;;;;;;;;;;;;;;26.51;47.51;98870.63;2085367;28;19916;-52
2022/06/19 04:41:38;;;;;;;;;;;;;;;26.51;47.47;98868.72;2083866;28;19955;-51
2022/06/19 04:42:38;;;;;;;;;;;;;;;26.50;47.11;98864.25;2083511;28;20264;-51
2022/06/19 04:43:39;;;;;;;;;;;;;;;26.51;47.08;98863.19;2085827;28;19924;-52
2022/06/19 04:44:39;;;;;;;;;;;;;;;26.50;47.06;98858.72;2086037;28;20829;-52
2022/06/19 04:45:39;;;;;;;;;;;;;;;26.50;47.07;98858.72;2085141;28;19912;-52
2022/06/19 04:46:40;;;;;;;;;;;;;;;26.50;47.09;98850.44;2086181;28;20221;-52
2022/06/19 04:47:41;;;;;;;;;;;;;;;26.50;47.19;98846.81;2085091;28;19990;-52
2022/06/19 04:48:41;;;;;;;;;;;;;;;26.50;46.92;98839.38;2079102;28;20336;-51
2022/06/19 04:49:41;;;;;;;;;;;;;;;26.49;47.00;98836.84;2084584;28;20034;-51
2022/06/19 04:50:42;;;;;;;;;;;;;;;26.50;46.95;98841.28;2084840;28;20369;-52
2022/06/19 04:51:43;;;;;;;;;;;;;;;26.49;47.28;98834.94;2084774;28;19969;-51
2022/06/19 04:52:43;;;;;;;;;;;;;;;26.49;47.05;98828.56;2085023;28;19949;-52
2022/06/19 04:53:44;;;;;;;;;;;;;;;26.50;47.20;98833.84;2084446;28;20565;-52
2022/06/19 04:54:45;;;;;;;;;;;;;;;26.51;47.21;98832.78;2084610;28;19923;-51
2022/06/19 04:55:46;;;;;;;;;;;;;;;26.51;47.26;98831.94;2085062;28;19917;-51
2022/06/19 04:56:46;;;;;;;;;;;;;;;26.50;47.56;98836.59;2084343;28;19917;-51
2022/06/19 04:57:46;;;;;;;;;;;;;;;26.50;47.42;98836.59;2084382;28;20031;-52
2022/06/19 04:58:47;;;;;;;;;;;;;;;26.50;47.39;98831.09;2084121;28;19963;-52
2022/06/19 04:59:47;;;;;;;;;;;;;;;26.51;47.57;98832.78;2077871;28;19917;-52
2022/06/19 05:00:52;;;;;;;;;;;;;;;26.51;47.44;98824.50;2084792;28;19963;-52
2022/06/19 05:01:52;;;;;;;;;;;;;;;26.51;47.61;98832.78;2084737;28;20325;-53
2022/06/19 05:02:52;;;;;;;;;;;;;;;26.50;47.49;98828.31;2082531;28;20125;-52
2022/06/19 05:03:53;;;;;;;;;;;;;;;26.50;47.57;98830.25;2085915;28;20565;-51
2022/06/19 05:04:54;;;;;;;;;;;;;;;26.50;47.88;98830.25;2082310;28;19916;-52
2022/06/19 05:05:54;;;;;;;;;;;;;;;26.50;47.52;98824.72;2078507;28;21060;-52
2022/06/19 05:06:54;;;;;;;;;;;;;;;26.50;47.66;98828.31;2079378;28;19963;-52
2022/06/19 05:07:55;;;;;;;;;;;;;;;26.49;47.81;98817.50;2083621;28;19916;-52
2022/06/19 05:08:55;;;;;;;;;;;;;;;26.49;47.46;98828.56;2083646;28;19916;-52
2022/06/19 05:09:55;;;;;;;;;;;;;;;26.48;47.52;98824.97;2082496;28;19924;-51
2022/06/19 05:10:56;;;;;;;;;;;;;;;26.48;47.71;98827.72;2082003;28;19939;-51
2022/06/19 05:11:56;;;;;;;;;;;;;;;26.48;47.63;98829.63;2084789;28;19943;-52
2022/06/19 05:12:56;;;;;;;;;;;;;;;26.49;47.49;98828.56;2083326;28;20334;-52
2022/06/19 05:13:57;;;;;;;;;;;;;;;26.48;47.40;98830.50;2082554;28;19963;-52
2022/06/19 05:14:57;;;;;;;;;;;;;;;26.48;47.44;98827.72;2084933;28;21283;-51
2022/06/19 05:16:09;;;;;;;;;;;;;;;26.49;47.58;98825.81;2084050;28;19942;-52
2022/06/19 05:17:09;;;;;;;;;;;;;;;26.48;47.71;98827.72;2079707;28;19912;-52
2022/06/19 05:18:09;;;;;;;;;;;;;;;26.47;47.48;98820.50;2084943;28;20417;-51
2022/06/19 05:19:10;;;;;;;;;;;;;;;26.46;47.67;98821.59;2084660;28;20133;-51
2022/06/19 05:20:11;;;;;;;;;;;;;;;26.46;47.16;98824.34;2084238;28;19962;-53
2022/06/19 05:21:11;;;;;;;;;;;;;;;26.46;47.02;98823.50;2084424;28;20304;-51
2022/06/19 05:22:12;;;;;;;;;;;;;;;26.46;46.93;98835.41;2083661;28;20185;-52